createdAt,value
2018-02-23T00:01:50.189Z,6.90
2018-02-23T00:04:18.693Z,6.37
2018-02-23T00:06:47.260Z,6.87
2018-02-23T00:09:16.453Z,6.50
2018-02-23T00:11:45.620Z,6.73
2018-02-23T00:14:14.024Z,6.87
2018-02-23T00:16:42.463Z,6.50
2018-02-23T00:19:11.452Z,6.53
2018-02-23T00:21:39.877Z,6.47
2018-02-23T00:24:08.535Z,6.50
2018-02-23T00:26:37.188Z,7.57
2018-02-23T00:29:05.608Z,7.23
2018-02-23T00:31:34.004Z,6.50
2018-02-23T00:34:03.010Z,7.03
2018-02-23T00:36:32.177Z,6.90
2018-02-23T00:39:00.597Z,6.53
2018-02-23T00:41:29.000Z,7.13
2018-02-23T00:43:57.396Z,7.50
2018-02-23T00:46:25.806Z,7.70
2018-02-23T00:48:54.979Z,7.30
2018-02-23T00:51:23.402Z,8.13
2018-02-23T00:53:51.841Z,7.73
2018-02-23T00:56:20.239Z,8.07
2018-02-23T00:58:49.398Z,7.67
2018-02-23T01:01:17.824Z,7.67
2018-02-23T01:03:47.007Z,8.30
2018-02-23T01:06:16.162Z,8.03
2018-02-23T01:08:44.605Z,8.00
2018-02-23T01:11:13.000Z,7.83
2018-02-23T01:13:41.452Z,8.70
2018-02-23T01:16:10.617Z,8.60
2018-02-23T01:18:39.024Z,8.47
2018-02-23T01:21:08.883Z,8.10
2018-02-23T01:23:37.472Z,7.80
2018-02-23T01:26:06.505Z,8.30
2018-02-23T01:28:36.058Z,7.80
2018-02-23T01:31:04.467Z,9.17
2018-02-23T01:33:32.904Z,8.83
2018-02-23T01:36:01.294Z,9.00
2018-02-23T01:38:29.720Z,8.77
2018-02-23T01:40:58.880Z,9.13
2018-02-23T01:43:27.287Z,8.80
2018-02-23T01:45:56.140Z,8.90
2018-02-23T01:48:24.530Z,8.90
2018-02-23T01:51:00.813Z,7.90
2018-02-23T01:53:29.211Z,9.87
2018-02-23T01:55:58.378Z,9.30
2018-02-23T01:58:26.601Z,8.33
2018-02-23T02:00:55.017Z,8.97
2018-02-23T02:03:23.432Z,8.53
2018-02-23T02:05:52.609Z,9.37
2018-02-23T02:08:21.022Z,9.50
2018-02-23T02:10:49.512Z,9.47
2018-02-23T02:13:17.943Z,9.47
2018-02-23T02:15:46.330Z,9.73
2018-02-23T02:18:14.734Z,9.50
2018-02-23T02:20:42.885Z,9.83
2018-02-23T02:23:12.060Z,9.63
2018-02-23T02:25:40.476Z,9.03
2018-02-23T02:28:08.884Z,9.47
2018-02-23T02:30:37.302Z,9.67
2018-02-23T02:33:05.706Z,10.57
2018-02-23T02:35:34.913Z,11.20
2018-02-23T02:38:14.080Z,9.77
2018-02-23T02:40:42.519Z,10.17
2018-02-23T02:43:11.878Z,10.87
2018-02-23T02:45:40.297Z,9.40
2018-02-23T02:48:08.714Z,9.57
2018-02-23T02:50:37.113Z,9.97
2018-02-23T02:53:05.633Z,11.17
2018-02-23T02:55:34.061Z,10.03
2018-02-23T02:58:02.484Z,10.33
2018-02-23T03:00:30.892Z,10.57
2018-02-23T03:02:59.325Z,9.00
2018-02-23T03:05:28.493Z,9.70
2018-02-23T03:07:56.897Z,9.23
2018-02-23T03:10:26.079Z,9.93
2018-02-23T03:12:54.480Z,9.43
2018-02-23T03:15:23.661Z,9.53
2018-02-23T03:17:52.064Z,10.03
2018-02-23T03:20:20.481Z,9.70
2018-02-23T03:22:48.884Z,9.80
2018-02-23T03:25:17.285Z,9.00
2018-02-23T03:27:46.469Z,9.40
2018-02-23T03:30:14.870Z,7.97
2018-02-23T03:32:44.217Z,9.47
2018-02-23T03:35:12.630Z,10.13
2018-02-23T03:37:41.793Z,10.23
2018-02-23T03:40:10.223Z,9.63
2018-02-23T03:42:38.612Z,9.27
2018-02-23T03:45:07.501Z,8.70
2018-02-23T03:47:36.548Z,9.40
2018-02-23T03:50:04.294Z,9.23
2018-02-23T03:52:32.701Z,10.07
2018-02-23T03:55:01.136Z,10.00
2018-02-23T03:57:29.542Z,9.20
2018-02-23T03:59:57.954Z,9.23
2018-02-23T04:02:27.137Z,9.33
2018-02-23T04:04:56.313Z,9.93
2018-02-23T04:07:24.745Z,9.53
2018-02-23T04:09:53.154Z,10.40
2018-02-23T04:12:21.580Z,9.20
2018-02-23T04:14:50.758Z,9.93
2018-02-23T04:17:19.173Z,10.20
2018-02-23T04:19:47.596Z,9.07
2018-02-23T04:22:16.016Z,9.67
2018-02-23T04:24:45.196Z,9.93
2018-02-23T04:27:13.591Z,9.63
2018-02-23T04:29:42.774Z,9.37
2018-02-23T04:32:11.206Z,10.70
2018-02-23T04:34:40.542Z,10.80
2018-02-23T04:37:08.956Z,9.93
2018-02-23T04:39:37.165Z,10.70
2018-02-23T04:42:05.701Z,9.93
2018-02-23T04:44:34.871Z,10.23
2018-02-23T04:47:03.296Z,10.20
2018-02-23T04:49:31.507Z,10.20
2018-02-23T04:51:59.909Z,10.97
2018-02-23T04:54:28.316Z,10.83
2018-02-23T04:56:56.721Z,10.93
2018-02-23T04:59:25.139Z,10.53
2018-02-23T05:01:53.550Z,9.63
2018-02-23T05:04:21.974Z,9.90
2018-02-23T05:06:50.381Z,10.43
2018-02-23T05:09:18.822Z,10.13
2018-02-23T05:11:47.226Z,11.23
2018-02-23T05:14:15.673Z,11.07
2018-02-23T05:16:43.916Z,9.87
2018-02-23T05:19:12.897Z,10.73
2018-02-23T05:21:41.912Z,10.37
2018-02-23T05:24:10.320Z,10.97
2018-02-23T05:26:38.728Z,11.07
2018-02-23T05:29:07.863Z,11.50
2018-02-23T05:31:37.226Z,9.23
2018-02-23T05:34:05.685Z,11.43
2018-02-23T05:36:34.118Z,11.00
2018-02-23T05:39:02.537Z,11.60
2018-02-23T05:41:30.951Z,12.90
2018-02-23T05:43:59.373Z,12.53
2018-02-23T05:46:27.786Z,12.63
2018-02-23T05:48:56.194Z,12.00
2018-02-23T05:51:25.406Z,12.07
2018-02-23T05:53:54.571Z,12.67
2018-02-23T05:56:23.001Z,12.43
2018-02-23T05:58:51.419Z,13.90
2018-02-23T06:01:20.137Z,15.38
2018-02-23T06:03:49.310Z,12.77
2018-02-23T06:06:17.728Z,11.30
2018-02-23T06:08:46.148Z,12.43
2018-02-23T06:11:14.842Z,12.95
2018-02-23T06:13:43.530Z,12.52
2018-02-23T06:16:17.414Z,12.63
2018-02-23T06:18:51.388Z,14.27
2018-02-23T06:21:19.818Z,14.33
2018-02-23T06:23:48.243Z,13.30
2018-02-23T06:26:16.924Z,13.40
2018-02-23T06:28:45.623Z,12.68
2018-02-23T06:31:15.071Z,13.25
2018-02-23T06:33:43.525Z,12.83
2018-02-23T06:36:11.940Z,13.67
2018-02-23T06:38:40.634Z,11.25
2018-02-23T06:41:09.067Z,12.07
2018-02-23T06:43:38.119Z,12.90
2018-02-23T06:46:06.825Z,13.40
2018-02-23T06:48:36.732Z,13.05
2018-02-23T06:51:05.429Z,12.60
2018-02-23T06:53:34.701Z,13.07
2018-02-23T06:56:03.396Z,12.95
2018-02-23T06:58:31.807Z,13.40
2018-02-23T07:01:00.516Z,14.20
2018-02-23T07:03:29.000Z,13.02
2018-02-23T07:05:57.666Z,17.52
2018-02-23T07:08:26.092Z,17.10
2018-02-23T07:10:55.264Z,15.93
2018-02-23T07:13:23.664Z,14.40
2018-02-23T07:15:52.856Z,14.33
2018-02-23T07:18:22.043Z,16.37
2018-02-23T07:20:50.744Z,14.70
2018-02-23T07:23:19.938Z,15.83
2018-02-23T07:25:49.125Z,15.90
2018-02-23T07:28:18.314Z,14.07
2018-02-23T07:30:47.547Z,15.73
2018-02-23T07:33:15.949Z,15.37
2018-02-23T07:35:44.369Z,14.53
2018-02-23T07:38:12.785Z,14.43
2018-02-23T07:40:41.184Z,13.33
2018-02-23T07:43:09.605Z,13.80
2018-02-23T07:45:38.001Z,14.37
2018-02-23T07:48:06.651Z,14.70
2018-02-23T07:50:34.891Z,14.47
2018-02-23T07:53:03.107Z,14.97
2018-02-23T07:55:31.533Z,14.17
2018-02-23T07:57:59.959Z,14.87
2018-02-23T08:00:28.192Z,14.50
2018-02-23T08:02:56.432Z,14.43
2018-02-23T08:05:25.601Z,14.43
2018-02-23T08:07:54.044Z,13.27
2018-02-23T08:10:23.382Z,15.23
2018-02-23T08:12:51.781Z,15.77
2018-02-23T08:15:20.970Z,6.27
2018-02-23T08:17:49.665Z,14.48
2018-02-23T08:20:18.846Z,14.17
2018-02-23T08:22:47.433Z,14.93
2018-02-23T08:25:16.614Z,14.70
2018-02-23T08:27:45.034Z,14.40
2018-02-23T08:30:13.459Z,14.67
2018-02-23T08:32:42.822Z,15.50
2018-02-23T08:35:11.240Z,15.73
2018-02-23T08:37:39.688Z,14.90
2018-02-23T08:40:08.091Z,14.97
2018-02-23T08:42:37.151Z,17.23
2018-02-23T08:45:05.869Z,15.90
2018-02-23T08:47:34.294Z,14.87
2018-02-23T08:50:03.474Z,13.97
2018-02-23T08:52:31.864Z,15.63
2018-02-23T08:55:01.058Z,15.50
2018-02-23T08:57:30.223Z,14.97
2018-02-23T08:59:58.639Z,15.40
2018-02-23T09:02:27.635Z,15.93
2018-02-23T09:04:56.321Z,16.30
2018-02-23T09:07:24.740Z,13.97
2018-02-23T09:09:53.152Z,15.57
2018-02-23T09:12:21.545Z,15.97
2018-02-23T09:14:50.727Z,15.27
2018-02-23T09:17:19.131Z,16.07
2018-02-23T09:19:47.839Z,17.23
2018-02-23T09:22:16.244Z,17.03
2018-02-23T09:24:44.648Z,14.43
2018-02-23T09:27:13.828Z,16.07
2018-02-23T09:29:42.231Z,15.10
2018-02-23T09:32:20.728Z,16.50
2018-02-23T09:34:49.123Z,16.43
2018-02-23T09:37:18.303Z,15.27
2018-02-23T09:39:46.719Z,13.67
2018-02-23T09:42:15.120Z,17.00
2018-02-23T09:44:43.512Z,15.43
2018-02-23T09:47:11.930Z,16.27
2018-02-23T09:49:41.118Z,17.97
2018-02-23T09:52:09.632Z,17.53
2018-02-23T09:54:38.462Z,17.13
2018-02-23T09:57:07.318Z,13.30
2018-02-23T09:59:36.065Z,16.37
2018-02-23T10:02:05.250Z,16.80
2018-02-23T10:04:33.683Z,10.60
2018-02-23T10:07:02.079Z,18.20
2018-02-23T10:09:30.492Z,17.17
2018-02-23T10:11:58.915Z,16.97
2018-02-23T10:14:27.137Z,17.33
2018-02-23T10:16:55.542Z,17.20
2018-02-23T10:19:24.713Z,16.07
2018-02-23T10:21:53.123Z,18.40
2018-02-23T10:24:21.543Z,16.37
2018-02-23T10:26:49.952Z,17.13
2018-02-23T10:29:18.361Z,18.00
2018-02-23T10:31:46.773Z,18.03
2018-02-23T10:34:15.206Z,17.27
2018-02-23T10:36:44.184Z,17.23
2018-02-23T10:39:13.178Z,17.40
2018-02-23T10:41:42.176Z,14.87
2018-02-23T10:44:11.177Z,16.17
2018-02-23T10:46:40.350Z,16.60
2018-02-23T10:49:08.561Z,19.77
2018-02-23T10:51:36.795Z,17.60
2018-02-23T10:54:05.026Z,19.60
2018-02-23T10:56:33.454Z,19.37
2018-02-23T10:59:01.667Z,17.03
2018-02-23T11:01:29.896Z,17.30
2018-02-23T11:03:58.290Z,17.60
2018-02-23T11:06:27.460Z,18.57
2018-02-23T11:08:55.875Z,17.57
2018-02-23T11:11:25.030Z,18.27
2018-02-23T11:13:53.460Z,17.63
2018-02-23T11:16:21.889Z,16.40
2018-02-23T11:18:50.290Z,19.43
2018-02-23T11:21:19.465Z,17.33
2018-02-23T11:23:47.885Z,8.97
2018-02-23T11:26:16.289Z,18.93
2018-02-23T11:28:44.693Z,17.53
2018-02-23T11:31:13.102Z,15.30
2018-02-23T11:33:42.281Z,15.90
2018-02-23T11:36:10.695Z,15.17
2018-02-23T11:38:39.867Z,17.67
2018-02-23T11:41:08.285Z,15.70
2018-02-23T11:43:36.705Z,10.83
2018-02-23T11:46:05.142Z,12.70
2018-02-23T13:10:31.490Z,11.43
2018-02-23T13:12:59.874Z,17.60
2018-02-23T13:15:28.083Z,18.57
2018-02-23T13:17:57.236Z,16.87
2018-02-23T13:20:25.633Z,13.90
2018-02-23T13:22:54.007Z,18.43
2018-02-23T13:25:22.406Z,13.93
2018-02-23T13:27:56.279Z,17.13
2018-02-23T13:30:24.501Z,15.43
2018-02-23T13:32:53.479Z,11.80
2018-02-23T13:35:21.678Z,17.37
2018-02-23T13:37:50.078Z,13.73
2018-02-23T13:40:18.275Z,16.53
2018-02-23T13:42:46.485Z,17.50
2018-02-23T13:45:15.629Z,17.50
2018-02-23T13:47:44.040Z,16.57
2018-02-23T13:50:12.446Z,18.13
2018-02-23T13:52:40.647Z,18.00
2018-02-23T13:55:09.051Z,17.87
2018-02-23T13:57:37.956Z,17.87
2018-02-23T14:00:07.065Z,17.87
2018-02-23T14:02:36.775Z,18.37
2018-02-23T14:05:05.294Z,18.27
2018-02-23T14:07:33.505Z,16.47
2018-02-23T14:10:01.894Z,17.90
2018-02-23T14:12:30.873Z,18.87
2018-02-23T14:14:58.920Z,17.57
2018-02-23T14:17:27.306Z,17.63
2018-02-23T14:19:55.710Z,18.20
2018-02-23T14:22:24.102Z,16.87
2018-02-23T14:24:53.264Z,18.97
2018-02-23T14:27:21.676Z,18.90
2018-02-23T14:29:50.817Z,13.30
2018-02-23T14:32:19.973Z,19.57
2018-02-23T14:34:49.142Z,19.07
2018-02-23T14:37:17.522Z,18.57
2018-02-23T14:39:46.812Z,18.30
2018-02-23T14:42:15.302Z,18.20
2018-02-23T14:44:43.766Z,18.43
2018-02-23T14:47:13.102Z,18.43
2018-02-23T14:49:52.863Z,18.73
2018-02-23T14:52:21.346Z,16.93
2018-02-23T14:54:50.589Z,17.47
2018-02-23T14:57:21.252Z,15.20
2018-02-23T14:59:50.955Z,18.83
2018-02-23T15:02:19.649Z,17.93
2018-02-23T15:04:48.106Z,18.07
2018-02-23T15:07:17.376Z,20.10
2018-02-23T15:09:46.710Z,19.10
2018-02-23T15:12:14.871Z,20.03
2018-02-23T15:14:50.033Z,22.47
2018-02-23T15:17:18.532Z,19.70
2018-02-23T15:19:47.027Z,21.87
2018-02-23T15:22:16.287Z,22.03
2018-02-23T15:24:44.774Z,20.40
2018-02-23T15:27:13.043Z,28.90
2018-02-23T15:29:42.299Z,22.33
2018-02-23T15:32:22.803Z,19.23
2018-02-23T15:34:51.303Z,21.37
2018-02-23T15:37:19.860Z,22.40
2018-02-23T15:39:51.218Z,22.10
2018-02-23T15:42:19.687Z,20.93
2018-02-23T15:44:48.243Z,22.27
2018-02-23T15:47:16.674Z,22.30
2018-02-23T15:49:51.556Z,21.00
2018-02-23T15:52:19.871Z,28.20
2018-02-23T15:54:48.157Z,21.20
2018-02-23T15:57:18.694Z,19.50
2018-02-23T15:59:47.781Z,19.73
2018-02-23T16:02:16.952Z,20.00
2018-02-23T16:04:46.217Z,21.70
2018-02-23T16:07:15.811Z,19.63
2018-02-23T16:09:44.333Z,18.87
2018-02-23T16:12:13.464Z,19.63
2018-02-23T16:14:42.709Z,19.03
2018-02-23T16:17:10.999Z,20.67
2018-02-23T16:19:39.306Z,19.27
2018-02-23T16:22:07.797Z,19.57
2018-02-23T16:24:37.040Z,18.90
2018-02-23T16:27:06.341Z,19.87
2018-02-23T16:29:34.819Z,19.83
2018-02-23T16:32:04.162Z,19.10
2018-02-23T16:34:32.673Z,17.77
2018-02-23T16:37:01.128Z,18.33
2018-02-23T16:39:32.262Z,19.70
2018-02-23T16:42:00.764Z,18.10
2018-02-23T16:44:32.494Z,19.00
2018-02-23T16:47:01.004Z,18.47
2018-02-23T16:49:30.248Z,19.60
2018-02-23T16:51:59.590Z,19.20
2018-02-23T16:54:28.839Z,19.47
2018-02-23T16:56:57.332Z,18.90
2018-02-23T16:59:25.897Z,18.47
2018-02-23T17:01:55.183Z,17.80
2018-02-23T17:04:23.716Z,19.10
2018-02-23T17:06:52.232Z,18.80
2018-02-23T17:09:21.616Z,18.47
2018-02-23T17:11:50.116Z,18.17
2018-02-23T17:14:19.529Z,18.90
2018-02-23T17:16:48.856Z,19.67
2018-02-23T17:19:18.289Z,18.13
2018-02-23T17:21:46.796Z,15.67
2018-02-23T17:24:16.656Z,18.17
2018-02-23T17:26:45.176Z,19.20
2018-02-23T17:29:13.655Z,20.27
2018-02-23T17:31:49.187Z,18.37
2018-02-23T17:34:17.692Z,16.47
2018-02-23T17:36:47.694Z,18.03
2018-02-23T17:39:16.215Z,16.97
2018-02-23T17:41:46.246Z,18.07
2018-02-23T17:44:17.163Z,18.90
2018-02-23T17:46:47.362Z,17.83
2018-02-23T17:49:16.936Z,18.83
2018-02-23T17:54:20.768Z,18.00
2018-02-23T17:56:49.282Z,19.27
2018-02-23T17:59:18.417Z,19.83
2018-02-23T18:01:47.076Z,15.57
2018-02-23T18:04:16.424Z,17.60
2018-02-23T18:06:44.927Z,18.90
2018-02-23T18:09:14.026Z,18.97
2018-02-23T18:11:43.280Z,19.10
2018-02-23T18:14:11.730Z,19.20
2018-02-23T18:16:40.981Z,19.20
2018-02-23T18:19:10.196Z,18.73
2018-02-23T18:21:39.283Z,18.87
2018-02-23T18:24:08.494Z,19.13
2018-02-23T18:26:37.782Z,18.87
2018-02-23T18:29:06.320Z,18.53
2018-02-23T18:31:34.822Z,18.63
2018-02-23T18:34:03.292Z,19.60
2018-02-23T18:36:31.856Z,19.67
2018-02-23T18:39:00.407Z,21.57
2018-02-23T18:44:04.362Z,21.23
2018-02-23T18:46:34.558Z,19.10
2018-02-23T18:49:03.126Z,19.63
2018-02-23T18:51:32.410Z,19.67
2018-02-23T18:54:01.590Z,20.40
2018-02-23T18:56:30.175Z,19.90
2018-02-23T18:58:59.420Z,19.90
2018-02-23T19:01:30.677Z,21.43
2018-02-23T19:03:59.470Z,21.90
2018-02-23T19:06:31.419Z,22.00
2018-02-23T19:09:01.618Z,22.07
2018-02-23T19:11:30.138Z,19.53
2018-02-23T19:13:59.228Z,20.63
2018-02-23T19:16:27.527Z,19.23
2018-02-23T19:18:56.947Z,19.93
2018-02-23T19:21:26.023Z,21.00
2018-02-23T19:23:55.226Z,21.50
2018-02-23T19:26:23.704Z,21.37
2018-02-23T19:28:52.156Z,21.03
2018-02-23T19:31:21.407Z,19.93
2018-02-23T19:33:49.903Z,20.67
2018-02-23T19:36:18.398Z,20.47
2018-02-23T19:38:47.491Z,21.20
2018-02-23T19:41:19.425Z,22.00
2018-02-23T19:43:47.869Z,22.03
2018-02-23T19:46:16.351Z,21.53
2018-02-23T19:48:44.851Z,22.87
2018-02-23T19:51:13.343Z,22.07
2018-02-23T19:53:42.619Z,20.73
2018-02-23T19:56:11.104Z,20.67
2018-02-23T19:58:39.595Z,19.37
2018-02-23T20:01:11.082Z,21.37
2018-02-23T20:03:39.559Z,21.17
2018-02-23T20:06:09.648Z,20.70
2018-02-23T20:08:38.768Z,21.70
2018-02-23T20:11:07.683Z,21.43
2018-02-23T20:13:36.802Z,19.87
2018-02-23T20:16:05.268Z,21.67
2018-02-23T20:18:33.793Z,20.23
2018-02-23T20:21:02.258Z,22.40
2018-02-23T20:23:30.761Z,19.90
2018-02-23T20:25:59.212Z,19.50
2018-02-23T20:28:27.703Z,20.77
2018-02-23T20:30:56.138Z,19.33
2018-02-23T20:33:24.573Z,19.37
2018-02-23T20:35:52.722Z,19.80
2018-02-23T20:38:21.162Z,20.73
2018-02-23T20:40:49.629Z,21.23
2018-02-23T20:43:18.122Z,21.87
2018-02-23T20:45:47.342Z,21.17
2018-02-23T20:48:16.568Z,21.23
2018-02-23T20:50:45.787Z,22.17
2018-02-23T20:53:14.270Z,21.63
2018-02-23T20:55:42.393Z,21.60
2018-02-23T20:58:11.643Z,21.30
2018-02-23T21:00:40.180Z,21.40
2018-02-23T21:03:09.372Z,20.33
2018-02-23T21:05:38.446Z,19.77
2018-02-23T21:08:06.944Z,22.43
2018-02-23T21:10:35.400Z,23.23
2018-02-23T21:13:03.848Z,22.43
2018-02-23T21:15:31.946Z,22.43
2018-02-23T21:17:59.745Z,22.20
2018-02-23T21:20:28.187Z,18.73
2018-02-23T21:22:57.395Z,21.37
2018-02-23T21:25:26.624Z,22.00
2018-02-23T21:27:56.967Z,23.10
2018-02-23T21:30:25.424Z,21.73
2018-02-23T21:32:53.538Z,21.70
2018-02-23T21:35:21.994Z,22.33
2018-02-23T21:37:52.955Z,20.53
2018-02-23T21:40:21.840Z,23.40
2018-02-23T21:42:50.322Z,20.53
2018-02-23T21:45:18.771Z,21.67
2018-02-23T21:47:47.218Z,22.90
2018-02-23T21:50:15.742Z,20.33
2018-02-23T21:52:44.276Z,22.93
2018-02-23T21:55:12.919Z,22.13
2018-02-23T21:57:41.150Z,21.33
2018-02-23T22:00:09.394Z,22.43
2018-02-23T22:02:38.044Z,21.57
2018-02-23T22:05:06.879Z,18.93
2018-02-23T22:07:35.197Z,21.70
2018-02-23T22:10:03.326Z,20.97
2018-02-23T22:12:31.479Z,21.33
2018-02-23T22:15:00.003Z,20.13
2018-02-23T22:17:28.458Z,21.10
2018-02-23T22:19:56.899Z,20.53
2018-02-23T22:22:25.317Z,21.07
2018-02-23T22:24:53.594Z,20.03
2018-02-23T22:27:22.099Z,14.83
2018-02-23T22:29:50.592Z,20.73
2018-02-23T22:32:18.875Z,21.47
2018-02-23T22:34:47.327Z,20.53
2018-02-23T22:37:15.820Z,22.40
2018-02-23T22:39:44.143Z,20.17
2018-02-23T22:42:12.581Z,21.00
2018-02-23T22:44:41.059Z,19.93
2018-02-23T22:47:09.505Z,21.77
2018-02-23T22:49:38.719Z,19.87
2018-02-23T22:54:40.589Z,19.80
2018-02-23T22:57:09.512Z,19.07
2018-02-23T22:59:38.586Z,19.07
2018-02-23T23:02:08.042Z,19.93
2018-02-23T23:04:37.083Z,19.77
2018-02-23T23:07:11.380Z,22.10
2018-02-23T23:09:39.848Z,19.97
2018-02-23T23:12:08.849Z,18.80
2018-02-23T23:14:37.486Z,21.40
2018-02-23T23:17:06.187Z,19.80
2018-02-23T23:19:34.657Z,18.90
2018-02-23T23:22:03.125Z,21.40
2018-02-23T23:24:31.592Z,19.63
2018-02-23T23:27:00.092Z,19.50
2018-02-23T23:29:28.522Z,19.33
2018-02-23T23:31:56.934Z,18.83
2018-02-23T23:34:25.361Z,20.23
2018-02-23T23:36:53.776Z,16.10
2018-02-23T23:39:22.347Z,19.50
2018-02-23T23:41:50.787Z,19.00
2018-02-23T23:44:19.247Z,20.57
2018-02-23T23:46:49.388Z,17.17
2018-02-23T23:49:17.845Z,19.03
2018-02-23T23:51:46.279Z,20.63
2018-02-23T23:54:14.710Z,19.47
2018-02-23T23:56:43.150Z,19.00
2018-02-23T23:59:11.593Z,19.87
